Aviation Digital Data Service (ADDS)

Output produced by METARs form (0306 UTC 16 August 2018)
found at http://www.aviationweather.gov/adds/metars/
 
LIEA 160250Z 04003KT 350V060 CAVOK 20/19 Q1014
TAF LIEA 152300Z 1600/1624 04008KT 9999 FEW040 
     BECMG 1608/1610 30010KT 
     BECMG 1619/1621 VRB04KT
       
LIME 160250Z 03002KT 9999 SCT070 SCT110 21/16 Q1018 NOSIG
TAF LIME 152300Z 1600/1624 VRB05KT CAVOK
       
LIPE 160250Z VRB02KT CAVOK 18/16 Q1016
TAF LIPE 152300Z 1600/1624 VRB05KT 9999 SCT040 
     BECMG 1610/1612 08010KT 
     BECMG 1617/1619 VRB05KT
       
TAF LIPB 151700Z 1518/1618 VRB05KT 9999 SCT030
       
LIRN 160250Z VRB02KT 9999 SCT030 BKN070 20/19 Q1012 NOSIG
TAF LIRN 152300Z 1600/1624 VRB05KT 9999 SCT020 SCT040 
     BECMG 1608/1610 24010KT 
     BECMG 1617/1619 VRB05KT
       
LIBR 160250Z 34006KT CAVOK 25/20 Q1010
TAF LIBR 152300Z 1600/1624 VRB05KT 9999 SCT030 
     TEMPO 1600/1603 SHRA 
     BECMG 1606/1608 36012KT 
     BECMG 1618/1620 VRB05KT
       
LICC 160250Z 29006KT CAVOK 19/17 Q1011
TAF LICC 152300Z 1600/1624 23008KT 9999 SCT030 
     BECMG 1609/1611 10014KT 
     BECMG 1618/1620 VRB05KT
       
LIPC 160255Z 27004KT CAVOK 17/13 Q1015
TAF LIPC 160200Z 1603/1612 VRB04KT CAVOK
       
LIRA 160250Z 03004KT CAVOK 19/17 Q1013
TAF LIRA 152300Z 1600/1624 VRB05KT 9999 FEW030 
     BECMG 1609/611 24010KT 
     TEMPO 1613/1617 TSRA 
     BECMG 1617/1619 VRB05KT
       
TAF LIBC 151100Z 1512/1612 15010KT 9999 SCT030 
     TEMPO 1512/1520 TSRA 
     BECMG 1518/1520 VRB04KT 
     BECMG 1609/1611 15010KT 
     TEMPO 1606/1612 TSRA
       
LIED 160155Z 04004KT CAVOK 21/19 Q1013 RMK SKC VIS MIN 9999 WIND THR35 03003KT WIND THR17 /////KT BLU
TAF LIED 160200Z 1603/1612 33005KT 9999 FEW025
       
LIEE 160250Z 33004KT CAVOK 21/20 Q1014
TAF LIEE 152300Z 1600/1624 34008KT 9999 SCT030 
     BECMG 1608/1610 15012KT 
     TEMPO 1618/1622 TSRA 
     BECMG 1619/1621 VRB04KT
       
LIPY 160250Z 03008KT CAVOK 25/17 Q1014
TAF LIPY 152300Z 1600/1624 VRB05KT 9999 FEW030 
     BECMG 1607/1609 03011KT 
     BECMG 1617/1619 VRB05KT
       
LIRF 160250Z 36003KT CAVOK 19/18 Q1013 NOSIG
TAF LIRF 152300Z 1600/1706 VRB05KT 9999 SCT030 
     BECMG 1608/1510 26012KT 
     TEMPO 1620/1624 TSRA 
     TEMPO 1700/1706 4000 BR
       
LIMJ 160250Z 02005KT CAVOK 24/13 Q1015
TAF LIMJ 152300Z 1600/1624 03005KT CAVOK
       
LIPL 160155Z 07004KT CAVOK 21/17 Q1016 RMK SCT SCT120 VIS MIN 9999 WIND THR31 07003KT WIND THR13 07004KT BLU
TAF LIPL 160200Z 1603/1612 VRB04KT 9999 SCT080
       
LIBV 160155Z VRB00KT 7000 NSC 18/18 Q1013 RMK SKC VIS MIN 7000 WIND THR32 /////KT WIND THR14 35002KT WHT
TAF LIBV 160200Z 1603/1612 35007KT 7000 SCT020 
     TEMPO 1604/1606 5000 BR 
     TEMPO 1608/1612 TSRA FEW015CB BKN025
       
LIRM 160255Z 04004KT 9999 SCT070 21/19 Q1012
TAF LIRM 160200Z 1603/1612 VRB03KT 9999 SCT030 SCT070 
     TEMPO 1608/1612 5000 TSRA FEW018CB BKN020
       
LIRS 160255Z 35008KT CAVOK 21/17 Q1014
TAF LIRS 160200Z 1603/1612 02008KT CAVOK
       
LIPS 160155Z 01004KT CAVOK 22/16 Q1017 RMK SKC VIS MIN 9999 WIND THR26 36004KT WIND THR08 36004KT BLU
TAF LIPS 160200Z 1603/1612 VRB04KT 9999 SCT080
       
LICA 160250Z 09004KT 9999 SCT020 19/17 Q1011
TAF LICA 152300Z 1600/1624 VRB05KT 9999 SCT030 
     TEMPO 1603/1609 TSRA 
     BECMG 1608/1610 27012KT 
     TEMPO 1614/1618 TSRA 
     BECMG 1618/1620 VRB05KT
       
TAF LICD 151700Z 1518/1618 33014KT 9999 SCT030
       
LIBN 160155Z 34005KT CAVOK 22/21 Q1011 RMK FEW FEW200 VIS MIN 9999 WIND THR14 33004KT WIND THR32 33005KT BLU
TAF LIMZ 151700Z 1518/1618 VRB05KT 9999 SCT040
       
LIML 160220Z 36002KT 9999 FEW090 20/18 Q1017 NOSIG
TAF LIML 152300Z 1600/1624 VRB05KT CAVOK
       
LIMC 160250Z 02006KT CAVOK 18/15 Q1017 NOSIG
TAF LIMC 152300Z 1600/1706 VRB05KT CAVOK
       
LIPO 160250Z 05005KT CAVOK 22/17 Q1017
TAF LIPO 152300Z 1600/1624 VRB05KT CAVOK
       
LIEO 160250Z 23007KT 9999 FEW030 22/20 Q1014
TAF LIEO 152300Z 1600/1624 30008KT 9999 FEW030 
     BECMG 1606/1608 02012KT 
     TEMPO 1608/1612 SHRA 
     BECMG 1619/1621 VRB04KT
       
LICJ 160250Z 17006KT CAVOK 22/19 Q1012
TAF LICJ 152300Z 1600/1624 VRB06KT 9999 SCT030 
     TEMPO 1600/1610 TSRA 
     BECMG 1608/1610 04010KT 
     BECMG 1618/1620 VRB05KT
       
LIBD 160250Z 26004KT CAVOK 19/19 Q1012
TAF LIBD 152300Z 1600/1624 26008KT 9999 SCT030 
     TEMPO 1600/1603 TSRA 
     BECMG 1608/1610 03012KT 
     BECMG 1617/1619 VRB05KT
       
TAF LIMP 151700Z 1518/1618 VRB05KT CAVOK
       
LIRQ 160250Z 15003KT 080V250 CAVOK 20/15 Q1015
TAF LIRQ 152300Z 1600/1624 VRB06KT CAVOK 
     BECMG 1607/1609 04010KT 
     BECMG 1616/1618 VRB05KT
       
LIRZ 160250Z AUTO 34004KT 9999 NCD 19/16 Q1015
TAF LIRZ 160056Z 1600/1624 VRB05KT CAVOK 
     BECMG 1608/1610 03010KT 
     TEMPO 1612/1617 TSRA 
     BECMG 1617/1619 VRB05KT
       
LIBP 160250Z AUTO 22006KT 9999 NCD 20/19 Q1013
TAF LIBP 152300Z 1600/1624 VRB05KT 9999 SCT040 
     TEMPO 1600/1616 TSRA 
     BECMG 1608/1610 02010KT 
     BECMG 1617/1619 VRB05KT
       
LIRP 160245Z 10004KT CAVOK 18/16 Q1015 NOSIG
TAF LIRP 152300Z 1600/1624 VRB04KT CAVOK 
     BECMG 1610/1612 07013KT 
     BECMG 1616/1618 09004KT
       
LIRE 160155Z 35002KT 9999 FEW020 21/20 Q1013 RMK SCT VIS MIN 9999 WIND THR13 36003KT WIND THR31 /////KT BLU
TAF LIRE 160200Z 1603/1612 02004KT 9999 FEW020
       
LICR 152150Z 01008KT CAVOK 24/18 Q1012
TAF LICR 151700Z 1518/1618 35013KT 9999 SCT030 
     TEMPO 1606/1615 SHRA
       
LIPR 160250Z AUTO 02009KT 350V050 9999 NCD 26/18 Q1015
TAF LIPR 160200Z 1603/1612 VRB05KT 9999 FEW030 
     BECMG 1608/1610 03013KT
       
LIPQ 160250Z AUTO 02004KT 9999 FEW100/// 18/15 Q1016
TAF LIPQ 152300Z 1600/1624 07010KT 9999 SCT030
       
LICZ 160155Z 18004KT 9999 FEW100 20/20 Q1011 RMK FEW VIS MIN 9999 WIND THR28 19004KT WIND THR10 17003KT A2988 BLU
TAF LICZ 160200Z 1603/1612 27005KT 9999 SCT050
       
LIMF 160250Z VRB02KT CAVOK 22/17 Q1018
TAF LIMF 152300Z 1600/1624 VRB05KT CAVOK
       
LICT 160255Z 31009KT 9999 SCT025 25/20 Q1012
TAF LICT 160200Z 1603/1612 30008KT 9999 SCT025 
     TEMPO 1609/1612 7000 TSRA FEW015CB
       
LIPH 160250Z AUTO 01005KT 9999 NCD 22/16 Q1017
TAF LIPH 152300Z 1600/1624 06007KT 9999 SCT030
       
LIPZ 160250Z 36008KT CAVOK 21/16 Q1016 NOSIG
TAF LIPZ 152300Z 1600/1706 07010KT 9999 FEW030
       
LIPX 160250Z 36002KT 9999 SCT060 21/16 Q1017
TAF LIPX 160200Z 1603/1612 VRB05KT 9999 SCT060